KEQA

El Dorado / Captain Jack Thomas Memorial Airport

El Dorado, Kansas, USA
METAR KEQA 250115Z AUTO 11004KT 10SM CLR 22/18 A2998 RMK AO2
Observed Flight Rules
May-25 @ 01:15 UTC (7 minutes ago) Visual Flight Rules
Wind Visibility Clouds
110° at 4 knots 10 miles
  • Clear skies
Temperatures Readings
Current 22°C / 72°F
Dewpoint 18°C / 64°F
Humidity 78%
Altimeter 29.98" Hg
Pressure 1015 hPa
Elevation 420
METAR KEQA 250115Z AUTO 11004KT 10SM CLR 22/18 A2998 RMK AO2
Observed Flight Rules
May-25 @ 01:15 UTC
(7 minutes ago)
VFR
Wind Visibility
110° at 4 knots 10 miles
Clouds
  • Clear skies
Temperature Dewpoint
22°C / 72°F 18°C / 64°F
Humidity Altimeter Pressure
78% 29.98" Hg 1015 hPa